sensor_id;sensor_type;location;lat;lon;timestamp;pressure;altitude;pressure_sealevel;temperature;humidity
83483;BME280;73420;32.678;-85.380;2023-11-21T00:01:20;98666.46;;;27.69;20.39
83483;BME280;73420;32.678;-85.380;2023-11-21T00:03:46;98670.46;;;27.26;20.40
83483;BME280;73420;32.678;-85.380;2023-11-21T00:06:11;98666.00;;;27.43;20.38
83483;BME280;73420;32.678;-85.380;2023-11-21T00:08:37;98667.63;;;27.76;20.33
83483;BME280;73420;32.678;-85.380;2023-11-21T00:11:02;98674.95;;;27.80;20.02
83483;BME280;73420;32.678;-85.380;2023-11-21T00:13:27;98675.02;;;27.60;20.08
83483;BME280;73420;32.678;-85.380;2023-11-21T00:15:53;98666.25;;;27.68;19.94
83483;BME280;73420;32.678;-85.380;2023-11-21T00:18:18;98654.86;;;27.65;20.08
83483;BME280;73420;32.678;-85.380;2023-11-21T00:20:43;98651.70;;;27.76;20.11
83483;BME280;73420;32.678;-85.380;2023-11-21T00:23:09;98643.94;;;27.57;19.95
83483;BME280;73420;32.678;-85.380;2023-11-21T00:25:34;98640.17;;;27.49;20.04
83483;BME280;73420;32.678;-85.380;2023-11-21T00:28:00;98637.43;;;27.68;20.00
83483;BME280;73420;32.678;-85.380;2023-11-21T00:30:25;98629.07;;;27.37;20.17
83483;BME280;73420;32.678;-85.380;2023-11-21T00:32:50;98628.92;;;27.43;20.20
83483;BME280;73420;32.678;-85.380;2023-11-21T00:35:16;98630.42;;;27.79;20.19
83483;BME280;73420;32.678;-85.380;2023-11-21T00:37:41;98630.37;;;27.51;20.32
83483;BME280;73420;32.678;-85.380;2023-11-21T00:40:09;98637.04;;;27.68;20.29
83483;BME280;73420;32.678;-85.380;2023-11-21T00:42:32;98642.32;;;27.44;20.22
83483;BME280;73420;32.678;-85.380;2023-11-21T00:44:57;98643.75;;;27.34;20.39
83483;BME280;73420;32.678;-85.380;2023-11-21T00:47:22;98647.00;;;27.65;20.37
83483;BME280;73420;32.678;-85.380;2023-11-21T00:49:48;98655.06;;;27.69;20.37
83483;BME280;73420;32.678;-85.380;2023-11-21T00:52:13;98650.87;;;27.23;20.41
83483;BME280;73420;32.678;-85.380;2023-11-21T00:54:38;98639.21;;;27.57;20.45
83483;BME280;73420;32.678;-85.380;2023-11-21T00:57:04;98638.49;;;27.24;20.76
83483;BME280;73420;32.678;-85.380;2023-11-21T00:59:29;98642.44;;;27.14;20.69
83483;BME280;73420;32.678;-85.380;2023-11-21T01:01:54;98639.07;;;27.39;20.75
83483;BME280;73420;32.678;-85.380;2023-11-21T01:04:20;98636.95;;;26.92;20.79
83483;BME280;73420;32.678;-85.380;2023-11-21T01:06:45;98642.33;;;27.51;20.58
83483;BME280;73420;32.678;-85.380;2023-11-21T01:09:11;98644.67;;;27.26;20.79
83483;BME280;73420;32.678;-85.380;2023-11-21T01:11:36;98634.38;;;27.19;20.83
83483;BME280;73420;32.678;-85.380;2023-11-21T01:14:01;98632.34;;;27.47;20.86
83483;BME280;73420;32.678;-85.380;2023-11-21T01:16:26;98637.03;;;27.40;20.95
83483;BME280;73420;32.678;-85.380;2023-11-21T01:18:52;98628.57;;;27.43;21.04
83483;BME280;73420;32.678;-85.380;2023-11-21T01:21:17;98626.91;;;27.50;21.04
83483;BME280;73420;32.678;-85.380;2023-11-21T01:23:42;98618.79;;;27.55;21.10
83483;BME280;73420;32.678;-85.380;2023-11-21T01:26:08;98615.64;;;27.58;21.06
83483;BME280;73420;32.678;-85.380;2023-11-21T01:28:33;98612.91;;;27.56;21.13
83483;BME280;73420;32.678;-85.380;2023-11-21T01:30:58;98612.99;;;27.47;21.21
83483;BME280;73420;32.678;-85.380;2023-11-21T01:33:24;98615.19;;;27.39;21.23
83483;BME280;73420;32.678;-85.380;2023-11-21T01:35:49;98613.81;;;27.46;21.21
83483;BME280;73420;32.678;-85.380;2023-11-21T01:38:14;98607.53;;;27.21;21.18
83483;BME280;73420;32.678;-85.380;2023-11-21T01:40:40;98601.84;;;27.30;21.28
83483;BME280;73420;32.678;-85.380;2023-11-21T01:43:04;98599.36;;;27.19;21.43
83483;BME280;73420;32.678;-85.380;2023-11-21T01:45:30;98591.41;;;27.29;21.27
83483;BME280;73420;32.678;-85.380;2023-11-21T01:47:56;98586.64;;;27.42;21.27
83483;BME280;73420;32.678;-85.380;2023-11-21T01:50:21;98588.86;;;27.15;21.17
83483;BME280;73420;32.678;-85.380;2023-11-21T01:52:48;98604.05;;;26.81;21.19
83483;BME280;73420;32.678;-85.380;2023-11-21T01:55:15;98615.59;;;27.41;21.09
83483;BME280;73420;32.678;-85.380;2023-11-21T01:57:37;98609.42;;;27.25;21.29
83483;BME280;73420;32.678;-85.380;2023-11-21T02:00:04;98595.69;;;27.30;21.33
83483;BME280;73420;32.678;-85.380;2023-11-21T02:02:28;98588.95;;;27.24;21.39
83483;BME280;73420;32.678;-85.380;2023-11-21T02:04:54;98595.93;;;27.29;21.42
83483;BME280;73420;32.678;-85.380;2023-11-21T02:07:18;98604.01;;;27.25;21.34
83483;BME280;73420;32.678;-85.380;2023-11-21T02:09:44;98598.81;;;26.84;21.43
83483;BME280;73420;32.678;-85.380;2023-11-21T02:12:09;98601.00;;;27.29;21.36
83483;BME280;73420;32.678;-85.380;2023-11-21T02:14:34;98602.52;;;27.02;21.50
83483;BME280;73420;32.678;-85.380;2023-11-21T02:17:00;98598.50;;;27.06;21.60
83483;BME280;73420;32.678;-85.380;2023-11-21T02:19:25;98601.61;;;27.05;21.64
83483;BME280;73420;32.678;-85.380;2023-11-21T02:21:52;98602.51;;;26.93;21.72
83483;BME280;73420;32.678;-85.380;2023-11-21T02:24:16;98611.39;;;26.92;21.85
83483;BME280;73420;32.678;-85.380;2023-11-21T02:26:41;98620.28;;;26.82;21.92
83483;BME280;73420;32.678;-85.380;2023-11-21T02:29:07;98622.38;;;26.91;21.89
83483;BME280;73420;32.678;-85.380;2023-11-21T02:31:32;98627.27;;;26.83;22.08
83483;BME280;73420;32.678;-85.380;2023-11-21T02:33:57;98627.29;;;26.72;22.20
83483;BME280;73420;32.678;-85.380;2023-11-21T02:36:23;98623.69;;;26.61;22.30
83483;BME280;73420;32.678;-85.380;2023-11-21T02:38:48;98623.79;;;26.64;22.46
83483;BME280;73420;32.678;-85.380;2023-11-21T02:41:13;98631.30;;;26.99;22.39
83483;BME280;73420;32.678;-85.380;2023-11-21T02:43:39;98636.84;;;26.54;22.47
83483;BME280;73420;32.678;-85.380;2023-11-21T02:46:04;98643.09;;;26.54;22.74
83483;BME280;73420;32.678;-85.380;2023-11-21T02:48:29;98644.28;;;27.05;22.71
83483;BME280;73420;32.678;-85.380;2023-11-21T02:50:55;98631.97;;;26.59;22.82
83483;BME280;73420;32.678;-85.380;2023-11-21T02:53:21;98625.65;;;26.73;22.97
83483;BME280;73420;32.678;-85.380;2023-11-21T02:55:46;98609.30;;;26.79;23.05
83483;BME280;73420;32.678;-85.380;2023-11-21T02:58:11;98597.32;;;26.87;23.08
83483;BME280;73420;32.678;-85.380;2023-11-21T03:00:36;98599.71;;;27.06;23.23
83483;BME280;73420;32.678;-85.380;2023-11-21T03:03:02;98606.84;;;26.86;23.37
83483;BME280;73420;32.678;-85.380;2023-11-21T03:05:27;98604.69;;;26.69;23.83
83483;BME280;73420;32.678;-85.380;2023-11-21T03:07:52;98594.56;;;26.78;24.00
83483;BME280;73420;32.678;-85.380;2023-11-21T03:10:18;98601.18;;;26.38;24.40
83483;BME280;73420;32.678;-85.380;2023-11-21T03:12:43;98603.43;;;26.52;24.54
83483;BME280;73420;32.678;-85.380;2023-11-21T03:15:09;98601.04;;;26.48;24.47
83483;BME280;73420;32.678;-85.380;2023-11-21T03:17:34;98594.67;;;26.91;24.50
83483;BME280;73420;32.678;-85.380;2023-11-21T03:19:59;98603.14;;;27.14;24.47
83483;BME280;73420;32.678;-85.380;2023-11-21T03:22:25;98601.25;;;27.10;24.64
83483;BME280;73420;32.678;-85.380;2023-11-21T03:24:50;98603.57;;;26.62;25.21
83483;BME280;73420;32.678;-85.380;2023-11-21T03:27:15;98606.76;;;26.56;25.39
83483;BME280;73420;32.678;-85.380;2023-11-21T03:29:42;98608.28;;;26.69;25.47
83483;BME280;73420;32.678;-85.380;2023-11-21T03:32:07;98605.73;;;26.87;25.41
83483;BME280;73420;32.678;-85.380;2023-11-21T03:34:31;98599.89;;;26.28;26.22
83483;BME280;73420;32.678;-85.380;2023-11-21T03:36:57;98609.85;;;27.07;25.99
83483;BME280;73420;32.678;-85.380;2023-11-21T03:39:22;98594.03;;;26.80;26.07
83483;BME280;73420;32.678;-85.380;2023-11-21T03:41:48;98601.45;;;26.72;25.92
83483;BME280;73420;32.678;-85.380;2023-11-21T03:44:13;98596.00;;;27.20;25.78
83483;BME280;73420;32.678;-85.380;2023-11-21T03:46:38;98616.07;;;27.22;25.55
83483;BME280;73420;32.678;-85.380;2023-11-21T03:49:03;98632.25;;;27.27;25.48
83483;BME280;73420;32.678;-85.380;2023-11-21T03:51:29;98633.96;;;26.88;25.64
83483;BME280;73420;32.678;-85.380;2023-11-21T03:53:55;98635.31;;;27.11;25.76
83483;BME280;73420;32.678;-85.380;2023-11-21T03:56:20;98624.49;;;26.89;25.89
83483;BME280;73420;32.678;-85.380;2023-11-21T03:58:45;98628.46;;;26.58;26.93
83483;BME280;73420;32.678;-85.380;2023-11-21T04:01:11;98622.92;;;26.72;27.23
83483;BME280;73420;32.678;-85.380;2023-11-21T04:03:37;98631.35;;;26.64;27.60
83483;BME280;73420;32.678;-85.380;2023-11-21T04:06:04;98626.06;;;26.48;27.87
83483;BME280;73420;32.678;-85.380;2023-11-21T04:08:28;98618.62;;;26.90;28.15
83483;BME280;73420;32.678;-85.380;2023-11-21T04:10:53;98600.25;;;26.44;28.65
83483;BME280;73420;32.678;-85.380;2023-11-21T04:13:18;98591.34;;;26.08;29.17
83483;BME280;73420;32.678;-85.380;2023-11-21T04:15:44;98580.77;;;26.27;28.79
83483;BME280;73420;32.678;-85.380;2023-11-21T04:18:10;98583.32;;;26.46;29.08
83483;BME280;73420;32.678;-85.380;2023-11-21T04:20:35;98601.61;;;26.10;29.96
83483;BME280;73420;32.678;-85.380;2023-11-21T04:23:00;98599.51;;;26.10;29.94
83483;BME280;73420;32.678;-85.380;2023-11-21T04:25:25;98586.50;;;26.03;29.95
83483;BME280;73420;32.678;-85.380;2023-11-21T04:27:50;98593.14;;;26.03;30.07
83483;BME280;73420;32.678;-85.380;2023-11-21T04:30:16;98582.59;;;26.20;30.11
83483;BME280;73420;32.678;-85.380;2023-11-21T04:32:41;98600.41;;;26.29;30.37
83483;BME280;73420;32.678;-85.380;2023-11-21T04:35:07;98611.46;;;26.03;30.77
83483;BME280;73420;32.678;-85.380;2023-11-21T04:37:31;98636.87;;;25.79;30.86
83483;BME280;73420;32.678;-85.380;2023-11-21T04:39:57;98619.19;;;25.82;30.47
83483;BME280;73420;32.678;-85.380;2023-11-21T04:42:22;98609.39;;;25.99;30.60
83483;BME280;73420;32.678;-85.380;2023-11-21T04:44:48;98603.58;;;26.11;30.18
83483;BME280;73420;32.678;-85.380;2023-11-21T04:47:13;98615.51;;;26.41;29.90
83483;BME280;73420;32.678;-85.380;2023-11-21T04:49:41;98611.17;;;26.55;29.75
83483;BME280;73420;32.678;-85.380;2023-11-21T04:52:04;98605.77;;;26.40;30.33
83483;BME280;73420;32.678;-85.380;2023-11-21T04:54:31;98587.42;;;26.18;30.28
83483;BME280;73420;32.678;-85.380;2023-11-21T04:56:55;98582.81;;;26.24;30.41
83483;BME280;73420;32.678;-85.380;2023-11-21T04:59:20;98584.94;;;26.06;30.45
83483;BME280;73420;32.678;-85.380;2023-11-21T05:01:45;98599.31;;;25.78;31.05
83483;BME280;73420;32.678;-85.380;2023-11-21T05:04:11;98597.04;;;25.56;31.48
83483;BME280;73420;32.678;-85.380;2023-11-21T05:06:36;98592.34;;;25.77;31.60
83483;BME280;73420;32.678;-85.380;2023-11-21T05:09:02;98603.39;;;25.45;31.38
83483;BME280;73420;32.678;-85.380;2023-11-21T05:11:28;98581.98;;;25.60;31.58
83483;BME280;73420;32.678;-85.380;2023-11-21T05:13:53;98578.86;;;25.29;31.81
83483;BME280;73420;32.678;-85.380;2023-11-21T05:16:18;98569.56;;;25.59;31.77
83483;BME280;73420;32.678;-85.380;2023-11-21T05:18:43;98563.53;;;25.65;31.68
83483;BME280;73420;32.678;-85.380;2023-11-21T05:21:09;98560.89;;;25.70;31.85
83483;BME280;73420;32.678;-85.380;2023-11-21T05:23:34;98553.96;;;25.87;31.36
83483;BME280;73420;32.678;-85.380;2023-11-21T05:26:00;98545.10;;;25.89;31.57
83483;BME280;73420;32.678;-85.380;2023-11-21T05:28:25;98536.33;;;25.52;31.61
83483;BME280;73420;32.678;-85.380;2023-11-21T05:30:50;98525.76;;;26.05;31.54
83483;BME280;73420;32.678;-85.380;2023-11-21T05:33:15;98536.17;;;25.79;31.63
83483;BME280;73420;32.678;-85.380;2023-11-21T05:35:41;98530.22;;;26.26;31.31
83483;BME280;73420;32.678;-85.380;2023-11-21T05:38:06;98521.17;;;26.04;31.47
83483;BME280;73420;32.678;-85.380;2023-11-21T05:40:32;98506.20;;;25.33;32.32
83483;BME280;73420;32.678;-85.380;2023-11-21T05:42:57;98504.83;;;25.53;31.87
83483;BME280;73420;32.678;-85.380;2023-11-21T05:45:22;98489.92;;;25.68;31.96
83483;BME280;73420;32.678;-85.380;2023-11-21T05:47:48;98478.52;;;25.69;31.94
83483;BME280;73420;32.678;-85.380;2023-11-21T05:50:15;98472.54;;;25.23;32.51
83483;BME280;73420;32.678;-85.380;2023-11-21T05:52:39;98471.11;;;25.53;32.48
83483;BME280;73420;32.678;-85.380;2023-11-21T05:55:05;98472.82;;;25.19;33.27
83483;BME280;73420;32.678;-85.380;2023-11-21T05:57:29;98476.78;;;25.49;32.62
83483;BME280;73420;32.678;-85.380;2023-11-21T05:59:54;98478.49;;;25.45;32.52
83483;BME280;73420;32.678;-85.380;2023-11-21T06:02:20;98481.50;;;25.05;33.34
83483;BME280;73420;32.678;-85.380;2023-11-21T06:04:45;98479.94;;;25.08;33.16
83483;BME280;73420;32.678;-85.380;2023-11-21T06:07:11;98478.18;;;25.45;32.72
83483;BME280;73420;32.678;-85.380;2023-11-21T06:09:37;98473.38;;;25.48;32.60
83483;BME280;73420;32.678;-85.380;2023-11-21T06:12:04;98476.32;;;25.94;31.98
83483;BME280;73420;32.678;-85.380;2023-11-21T06:14:27;98470.79;;;25.91;32.16
83483;BME280;73420;32.678;-85.380;2023-11-21T06:16:52;98478.00;;;25.67;31.72
83483;BME280;73420;32.678;-85.380;2023-11-21T06:19:18;98469.46;;;25.69;32.56
83483;BME280;73420;32.678;-85.380;2023-11-21T06:21:46;98457.76;;;25.50;32.63
83483;BME280;73420;32.678;-85.380;2023-11-21T06:24:08;98461.48;;;25.65;31.99
83483;BME280;73420;32.678;-85.380;2023-11-21T06:26:34;98461.86;;;25.72;32.25
83483;BME280;73420;32.678;-85.380;2023-11-21T06:28:59;98441.56;;;25.44;33.00
83483;BME280;73420;32.678;-85.380;2023-11-21T06:31:25;98459.41;;;25.76;32.35
83483;BME280;73420;32.678;-85.380;2023-11-21T06:33:50;98458.40;;;24.77;34.14
83483;BME280;73420;32.678;-85.380;2023-11-21T06:36:15;98457.28;;;24.86;33.67
83483;BME280;73420;32.678;-85.380;2023-11-21T06:38:41;98449.89;;;24.67;34.67
83483;BME280;73420;32.678;-85.380;2023-11-21T06:41:06;98453.60;;;24.46;34.98
83483;BME280;73420;32.678;-85.380;2023-11-21T06:43:32;98448.01;;;24.70;33.89
83483;BME280;73420;32.678;-85.380;2023-11-21T06:45:57;98432.93;;;25.18;33.40
83483;BME280;73420;32.678;-85.380;2023-11-21T06:48:22;98443.30;;;25.34;33.17
83483;BME280;73420;32.678;-85.380;2023-11-21T06:50:48;98436.31;;;25.29;33.19
83483;BME280;73420;32.678;-85.380;2023-11-21T06:53:13;98449.26;;;25.46;33.09
83483;BME280;73420;32.678;-85.380;2023-11-21T06:55:39;98454.17;;;25.57;32.57
83483;BME280;73420;32.678;-85.380;2023-11-21T06:58:04;98459.32;;;25.48;32.75
83483;BME280;73420;32.678;-85.380;2023-11-21T07:00:29;98437.29;;;25.28;32.78
83483;BME280;73420;32.678;-85.380;2023-11-21T07:02:55;98432.13;;;25.25;33.29
83483;BME280;73420;32.678;-85.380;2023-11-21T07:05:21;98454.05;;;25.88;33.23
83483;BME280;73420;32.678;-85.380;2023-11-21T07:07:46;98460.98;;;24.71;34.22
83483;BME280;73420;32.678;-85.380;2023-11-21T07:10:11;98458.88;;;25.04;34.39
83483;BME280;73420;32.678;-85.380;2023-11-21T07:12:36;98464.71;;;24.81;34.12
83483;BME280;73420;32.678;-85.380;2023-11-21T07:15:02;98470.05;;;24.90;33.90
83483;BME280;73420;32.678;-85.380;2023-11-21T07:17:27;98471.34;;;25.19;34.26
83483;BME280;73420;32.678;-85.380;2023-11-21T07:19:52;98500.12;;;25.09;33.76
83483;BME280;73420;32.678;-85.380;2023-11-21T07:22:18;98506.28;;;25.03;33.65
83483;BME280;73420;32.678;-85.380;2023-11-21T07:24:43;98492.92;;;25.05;33.79
83483;BME280;73420;32.678;-85.380;2023-11-21T07:27:08;98482.56;;;25.65;33.18
83483;BME280;73420;32.678;-85.380;2023-11-21T07:29:34;98495.79;;;25.67;33.17
83483;BME280;73420;32.678;-85.380;2023-11-21T07:32:00;98501.78;;;25.49;33.35
83483;BME280;73420;32.678;-85.380;2023-11-21T07:34:25;98528.84;;;26.08;32.56
83483;BME280;73420;32.678;-85.380;2023-11-21T07:36:50;98511.30;;;25.31;33.72
83483;BME280;73420;32.678;-85.380;2023-11-21T07:39:15;98508.17;;;25.20;33.85
83483;BME280;73420;32.678;-85.380;2023-11-21T07:41:41;98515.10;;;25.64;33.29
83483;BME280;73420;32.678;-85.380;2023-11-21T07:44:07;98510.06;;;25.90;32.52
83483;BME280;73420;32.678;-85.380;2023-11-21T07:46:32;98506.48;;;26.11;32.44
83483;BME280;73420;32.678;-85.380;2023-11-21T07:48:57;98504.88;;;26.06;32.49
83483;BME280;73420;32.678;-85.380;2023-11-21T07:51:22;98528.65;;;26.41;32.39
83483;BME280;73420;32.678;-85.380;2023-11-21T07:53:48;98552.69;;;26.06;32.50
83483;BME280;73420;32.678;-85.380;2023-11-21T07:56:13;98573.30;;;26.01;32.74
83483;BME280;73420;32.678;-85.380;2023-11-21T07:58:39;98598.20;;;25.81;32.74
83483;BME280;73420;32.678;-85.380;2023-11-21T08:01:04;98607.27;;;25.57;33.58
83483;BME280;73420;32.678;-85.380;2023-11-21T08:03:30;98616.99;;;25.97;33.48
83483;BME280;73420;32.678;-85.380;2023-11-21T08:05:55;98603.49;;;26.24;33.15
83483;BME280;73420;32.678;-85.380;2023-11-21T08:08:21;98601.22;;;25.62;33.81
83483;BME280;73420;32.678;-85.380;2023-11-21T08:10:46;98606.63;;;25.05;34.68
83483;BME280;73420;32.678;-85.380;2023-11-21T08:13:11;98618.81;;;25.09;34.74
83483;BME280;73420;32.678;-85.380;2023-11-21T08:15:36;98626.45;;;25.49;34.53
83483;BME280;73420;32.678;-85.380;2023-11-21T08:18:02;98647.13;;;25.29;34.78
83483;BME280;73420;32.678;-85.380;2023-11-21T08:20:28;98667.45;;;25.16;35.24
83483;BME280;73420;32.678;-85.380;2023-11-21T08:22:53;98675.30;;;25.17;35.14
83483;BME280;73420;32.678;-85.380;2023-11-21T08:25:18;98676.00;;;24.72;35.87
83483;BME280;73420;32.678;-85.380;2023-11-21T08:27:43;98678.53;;;25.48;35.69
83483;BME280;73420;32.678;-85.380;2023-11-21T08:30:10;98673.91;;;24.99;35.59
83483;BME280;73420;32.678;-85.380;2023-11-21T08:32:35;98673.38;;;25.00;35.74
83483;BME280;73420;32.678;-85.380;2023-11-21T08:35:10;98660.82;;;25.09;35.59
83483;BME280;73420;32.678;-85.380;2023-11-21T08:37:25;98652.38;;;25.25;35.45
83483;BME280;73420;32.678;-85.380;2023-11-21T08:39:50;98654.12;;;25.15;35.67
83483;BME280;73420;32.678;-85.380;2023-11-21T08:42:16;98660.91;;;25.37;35.30
83483;BME280;73420;32.678;-85.380;2023-11-21T08:44:41;98653.72;;;25.34;35.48
83483;BME280;73420;32.678;-85.380;2023-11-21T08:47:07;98649.41;;;25.30;35.55
83483;BME280;73420;32.678;-85.380;2023-11-21T08:49:32;98644.18;;;25.76;34.97
83483;BME280;73420;32.678;-85.380;2023-11-21T08:51:57;98647.62;;;25.95;34.72
83483;BME280;73420;32.678;-85.380;2023-11-21T08:54:23;98656.74;;;25.98;34.68
83483;BME280;73420;32.678;-85.380;2023-11-21T08:56:49;98655.82;;;26.14;34.47
83483;BME280;73420;32.678;-85.380;2023-11-21T08:59:14;98657.07;;;26.26;34.28
83483;BME280;73420;32.678;-85.380;2023-11-21T09:01:39;98653.29;;;26.21;34.30
83483;BME280;73420;32.678;-85.380;2023-11-21T09:04:05;98648.25;;;26.23;34.17
83483;BME280;73420;32.678;-85.380;2023-11-21T09:06:30;98644.77;;;26.24;34.06
83483;BME280;73420;32.678;-85.380;2023-11-21T09:08:55;98643.28;;;25.95;34.29
83483;BME280;73420;32.678;-85.380;2023-11-21T09:11:21;98631.20;;;25.85;34.92
83483;BME280;73420;32.678;-85.380;2023-11-21T09:13:46;98617.14;;;26.20;34.51
83483;BME280;73420;32.678;-85.380;2023-11-21T09:16:11;98624.26;;;26.04;34.36
83483;BME280;73420;32.678;-85.380;2023-11-21T09:18:37;98637.47;;;26.15;34.30
83483;BME280;73420;32.678;-85.380;2023-11-21T09:21:03;98646.34;;;26.14;34.51
83483;BME280;73420;32.678;-85.380;2023-11-21T09:23:28;98639.47;;;25.97;34.43
83483;BME280;73420;32.678;-85.380;2023-11-21T09:25:53;98628.74;;;26.35;34.20
83483;BME280;73420;32.678;-85.380;2023-11-21T09:28:18;98620.04;;;26.24;34.35
83483;BME280;73420;32.678;-85.380;2023-11-21T09:30:44;98613.41;;;26.19;34.48
83483;BME280;73420;32.678;-85.380;2023-11-21T09:33:09;98615.83;;;25.60;34.92
83483;BME280;73420;32.678;-85.380;2023-11-21T09:35:34;98617.82;;;25.93;34.82
83483;BME280;73420;32.678;-85.380;2023-11-21T09:38:00;98614.38;;;25.91;34.85
83483;BME280;73420;32.678;-85.380;2023-11-21T09:40:25;98618.21;;;26.08;34.37
83483;BME280;73420;32.678;-85.380;2023-11-21T09:42:55;98624.35;;;26.38;34.25
83483;BME280;73420;32.678;-85.380;2023-11-21T09:45:25;98623.69;;;26.34;34.18
83483;BME280;73420;32.678;-85.380;2023-11-21T09:47:42;98612.48;;;26.38;34.22
83483;BME280;73420;32.678;-85.380;2023-11-21T09:50:08;98601.83;;;26.08;33.92
83483;BME280;73420;32.678;-85.380;2023-11-21T09:52:36;98572.98;;;26.14;33.73
83483;BME280;73420;32.678;-85.380;2023-11-21T09:54:58;98540.15;;;25.94;33.91
83483;BME280;73420;32.678;-85.380;2023-11-21T09:57:24;98511.15;;;25.60;34.95
83483;BME280;73420;32.678;-85.380;2023-11-21T09:59:52;98506.90;;;24.50;36.89
83483;BME280;73420;32.678;-85.380;2023-11-21T10:02:14;98505.55;;;24.16;37.74
83483;BME280;73420;32.678;-85.380;2023-11-21T10:04:40;98491.98;;;23.85;38.24
83483;BME280;73420;32.678;-85.380;2023-11-21T10:07:06;98481.28;;;24.21;37.46
83483;BME280;73420;32.678;-85.380;2023-11-21T10:09:31;98486.31;;;23.80;38.34
83483;BME280;73420;32.678;-85.380;2023-11-21T10:11:56;98479.49;;;23.66;38.57
83483;BME280;73420;32.678;-85.380;2023-11-21T10:14:25;98466.37;;;23.82;38.69
83483;BME280;73420;32.678;-85.380;2023-11-21T10:16:48;98467.90;;;23.43;39.01
83483;BME280;73420;32.678;-85.380;2023-11-21T10:19:12;98456.69;;;23.86;39.20
83483;BME280;73420;32.678;-85.380;2023-11-21T10:21:38;98438.66;;;23.25;39.45
83483;BME280;73420;32.678;-85.380;2023-11-21T10:24:03;98416.09;;;23.95;39.22
83483;BME280;73420;32.678;-85.380;2023-11-21T10:26:28;98410.31;;;23.40;40.00
83483;BME280;73420;32.678;-85.380;2023-11-21T10:28:58;98390.55;;;23.78;39.38
83483;BME280;73420;32.678;-85.380;2023-11-21T10:31:19;98364.53;;;23.63;39.60
83483;BME280;73420;32.678;-85.380;2023-11-21T10:33:45;98340.88;;;23.12;40.10
83483;BME280;73420;32.678;-85.380;2023-11-21T10:36:10;98362.22;;;23.20;40.27
83483;BME280;73420;32.678;-85.380;2023-11-21T10:38:42;98390.30;;;23.05;40.74
83483;BME280;73420;32.678;-85.380;2023-11-21T10:41:01;98414.23;;;22.80;40.83
83483;BME280;73420;32.678;-85.380;2023-11-21T10:43:26;98405.19;;;23.30;40.42
83483;BME280;73420;32.678;-85.380;2023-11-21T10:45:52;98404.18;;;23.01;40.84
83483;BME280;73420;32.678;-85.380;2023-11-21T10:48:17;98413.87;;;22.95;40.69
83483;BME280;73420;32.678;-85.380;2023-11-21T10:50:43;98422.20;;;23.51;39.49
83483;BME280;73420;32.678;-85.380;2023-11-21T10:53:08;98403.78;;;23.61;39.73
83483;BME280;73420;32.678;-85.380;2023-11-21T10:55:34;98404.42;;;23.63;40.13
83483;BME280;73420;32.678;-85.380;2023-11-21T10:58:00;98395.73;;;22.76;41.47
83483;BME280;73420;32.678;-85.380;2023-11-21T11:00:24;98392.88;;;22.87;40.99
83483;BME280;73420;32.678;-85.380;2023-11-21T11:02:51;98409.81;;;23.29;40.68
83483;BME280;73420;32.678;-85.380;2023-11-21T11:05:17;98430.84;;;23.53;40.50
83483;BME280;73420;32.678;-85.380;2023-11-21T11:07:42;98422.18;;;23.46;40.47
83483;BME280;73420;32.678;-85.380;2023-11-21T11:10:07;98417.28;;;23.76;39.84
83483;BME280;73420;32.678;-85.380;2023-11-21T11:18:30;98400.63;;;18.39;55.72
83483;BME280;73420;32.678;-85.380;2023-11-21T11:18:32;98400.18;;;18.46;55.52
83483;BME280;73420;32.678;-85.380;2023-11-21T11:21:06;98401.01;;;20.67;49.87
83483;BME280;73420;32.678;-85.380;2023-11-21T11:23:33;98406.60;;;21.11;48.39
83483;BME280;73420;32.678;-85.380;2023-11-21T11:25:59;98388.92;;;21.88;45.59
83483;BME280;73420;32.678;-85.380;2023-11-21T11:28:17;98368.80;;;22.63;43.76
83483;BME280;73420;32.678;-85.380;2023-11-21T11:30:47;98372.66;;;22.36;43.74
83483;BME280;73420;32.678;-85.380;2023-11-21T11:33:09;98371.39;;;23.11;43.21
83483;BME280;73420;32.678;-85.380;2023-11-21T11:35:36;98371.38;;;22.65;43.30
83483;BME280;73420;32.678;-85.380;2023-11-21T11:37:55;98372.77;;;22.92;42.73
83483;BME280;73420;32.678;-85.380;2023-11-21T11:40:22;98363.87;;;22.24;43.93
83483;BME280;73420;32.678;-85.380;2023-11-21T11:42:56;98359.78;;;22.41;43.77
83483;BME280;73420;32.678;-85.380;2023-11-21T11:45:17;98344.13;;;22.22;44.33
83483;BME280;73420;32.678;-85.380;2023-11-21T11:47:36;98350.62;;;23.06;42.64
83483;BME280;73420;32.678;-85.380;2023-11-21T11:50:04;98337.83;;;22.76;42.99
83483;BME280;73420;32.678;-85.380;2023-11-21T11:52:33;98343.38;;;23.17;42.45
83483;BME280;73420;32.678;-85.380;2023-11-21T11:54:54;98321.67;;;22.76;42.97
83483;BME280;73420;32.678;-85.380;2023-11-21T11:57:18;98306.47;;;22.44;44.42
83483;BME280;73420;32.678;-85.380;2023-11-21T12:02:10;98309.47;;;22.64;43.37
83483;BME280;73420;32.678;-85.380;2023-11-21T12:04:41;98307.30;;;23.23;42.46
83483;BME280;73420;32.678;-85.380;2023-11-21T12:07:01;98312.34;;;22.54;43.15
83483;BME280;73420;32.678;-85.380;2023-11-21T12:09:25;98311.90;;;23.00;42.99
83483;BME280;73420;32.678;-85.380;2023-11-21T12:11:52;98325.01;;;22.99;42.84
83483;BME280;73420;32.678;-85.380;2023-11-21T12:14:16;98344.87;;;23.17;42.68
83483;BME280;73420;32.678;-85.380;2023-11-21T12:16:41;98354.26;;;23.03;42.61
83483;BME280;73420;32.678;-85.380;2023-11-21T12:19:07;98346.63;;;22.37;43.86
83483;BME280;73420;32.678;-85.380;2023-11-21T12:21:33;98348.10;;;22.67;43.03
83483;BME280;73420;32.678;-85.380;2023-11-21T12:23:59;98347.27;;;23.50;42.16
83483;BME280;73420;32.678;-85.380;2023-11-21T12:26:24;98365.90;;;23.13;42.07
83483;BME280;73420;32.678;-85.380;2023-11-21T12:28:52;98383.99;;;23.48;41.66
83483;BME280;73420;32.678;-85.380;2023-11-21T12:31:14;98399.72;;;23.13;41.80
83483;BME280;73420;32.678;-85.380;2023-11-21T12:33:39;98396.77;;;23.63;40.96
83483;BME280;73420;32.678;-85.380;2023-11-21T12:36:09;98410.85;;;23.52;41.57